sensor_id;sensor_type;location;lat;lon;timestamp;P1;durP1;ratioP1;P2;durP2;ratioP2
74415;SDS011;62850;42.428;25.618;2024-03-17T00:02:20;10.70;;;6.00;;
74415;SDS011;62850;42.428;25.618;2024-03-17T00:04:45;11.52;;;5.95;;
74415;SDS011;62850;42.428;25.618;2024-03-17T00:07:11;10.27;;;5.75;;
74415;SDS011;62850;42.428;25.618;2024-03-17T00:09:37;11.40;;;5.78;;
74415;SDS011;62850;42.428;25.618;2024-03-17T00:12:03;12.50;;;5.93;;
74415;SDS011;62850;42.428;25.618;2024-03-17T00:14:29;11.55;;;6.10;;
74415;SDS011;62850;42.428;25.618;2024-03-17T00:16:54;11.35;;;6.45;;
74415;SDS011;62850;42.428;25.618;2024-03-17T00:19:20;11.02;;;5.97;;
74415;SDS011;62850;42.428;25.618;2024-03-17T00:21:48;11.70;;;6.15;;
74415;SDS011;62850;42.428;25.618;2024-03-17T00:24:15;12.20;;;5.90;;
74415;SDS011;62850;42.428;25.618;2024-03-17T00:26:41;12.55;;;6.53;;
74415;SDS011;62850;42.428;25.618;2024-03-17T00:29:07;14.70;;;5.88;;
74415;SDS011;62850;42.428;25.618;2024-03-17T00:31:32;11.20;;;5.82;;
74415;SDS011;62850;42.428;25.618;2024-03-17T00:33:58;12.32;;;6.40;;
74415;SDS011;62850;42.428;25.618;2024-03-17T00:36:23;13.48;;;6.38;;
74415;SDS011;62850;42.428;25.618;2024-03-17T00:38:48;14.35;;;6.78;;
74415;SDS011;62850;42.428;25.618;2024-03-17T00:41:14;12.52;;;6.93;;
74415;SDS011;62850;42.428;25.618;2024-03-17T00:43:40;13.45;;;6.60;;
74415;SDS011;62850;42.428;25.618;2024-03-17T00:46:06;11.38;;;6.15;;
74415;SDS011;62850;42.428;25.618;2024-03-17T00:48:31;12.82;;;6.72;;
74415;SDS011;62850;42.428;25.618;2024-03-17T00:50:57;11.90;;;6.18;;
74415;SDS011;62850;42.428;25.618;2024-03-17T00:53:24;11.70;;;6.30;;
74415;SDS011;62850;42.428;25.618;2024-03-17T00:55:53;12.40;;;6.40;;
74415;SDS011;62850;42.428;25.618;2024-03-17T00:58:22;12.65;;;6.28;;
74415;SDS011;62850;42.428;25.618;2024-03-17T01:00:47;11.23;;;6.30;;
74415;SDS011;62850;42.428;25.618;2024-03-17T01:03:13;13.48;;;6.65;;
74415;SDS011;62850;42.428;25.618;2024-03-17T01:05:40;12.95;;;6.50;;
74415;SDS011;62850;42.428;25.618;2024-03-17T01:08:12;12.15;;;5.88;;
74415;SDS011;62850;42.428;25.618;2024-03-17T01:10:39;13.63;;;6.45;;
74415;SDS011;62850;42.428;25.618;2024-03-17T01:13:06;12.00;;;6.18;;
74415;SDS011;62850;42.428;25.618;2024-03-17T01:15:32;11.70;;;6.30;;
74415;SDS011;62850;42.428;25.618;2024-03-17T01:17:58;16.17;;;6.10;;
74415;SDS011;62850;42.428;25.618;2024-03-17T01:20:24;10.85;;;5.95;;
74415;SDS011;62850;42.428;25.618;2024-03-17T01:22:50;12.40;;;6.13;;
74415;SDS011;62850;42.428;25.618;2024-03-17T01:25:16;11.75;;;6.55;;
74415;SDS011;62850;42.428;25.618;2024-03-17T01:27:41;11.25;;;5.60;;
74415;SDS011;62850;42.428;25.618;2024-03-17T01:30:08;13.75;;;7.25;;
74415;SDS011;62850;42.428;25.618;2024-03-17T01:32:34;15.43;;;6.55;;
74415;SDS011;62850;42.428;25.618;2024-03-17T01:35:00;13.90;;;7.30;;
74415;SDS011;62850;42.428;25.618;2024-03-17T01:37:26;13.32;;;6.22;;
74415;SDS011;62850;42.428;25.618;2024-03-17T01:39:51;14.20;;;7.05;;
74415;SDS011;62850;42.428;25.618;2024-03-17T01:42:17;12.35;;;6.55;;
74415;SDS011;62850;42.428;25.618;2024-03-17T01:44:42;13.13;;;6.00;;
74415;SDS011;62850;42.428;25.618;2024-03-17T01:47:07;12.00;;;6.20;;
74415;SDS011;62850;42.428;25.618;2024-03-17T01:49:34;14.82;;;7.20;;
74415;SDS011;62850;42.428;25.618;2024-03-17T01:52:00;11.98;;;6.40;;
74415;SDS011;62850;42.428;25.618;2024-03-17T01:54:25;15.18;;;6.68;;
74415;SDS011;62850;42.428;25.618;2024-03-17T01:56:51;15.82;;;7.43;;
74415;SDS011;62850;42.428;25.618;2024-03-17T01:59:17;15.63;;;6.97;;
74415;SDS011;62850;42.428;25.618;2024-03-17T02:01:42;14.25;;;7.57;;
74415;SDS011;62850;42.428;25.618;2024-03-17T02:04:08;12.25;;;6.25;;
74415;SDS011;62850;42.428;25.618;2024-03-17T02:06:33;13.45;;;6.90;;
74415;SDS011;62850;42.428;25.618;2024-03-17T02:08:59;14.82;;;7.50;;
74415;SDS011;62850;42.428;25.618;2024-03-17T02:11:26;16.40;;;7.72;;
74415;SDS011;62850;42.428;25.618;2024-03-17T02:13:53;13.10;;;7.22;;
74415;SDS011;62850;42.428;25.618;2024-03-17T02:16:20;12.40;;;6.38;;
74415;SDS011;62850;42.428;25.618;2024-03-17T02:18:46;13.82;;;7.03;;
74415;SDS011;62850;42.428;25.618;2024-03-17T02:21:15;15.63;;;7.57;;
74415;SDS011;62850;42.428;25.618;2024-03-17T02:23:44;14.60;;;7.82;;
74415;SDS011;62850;42.428;25.618;2024-03-17T02:26:09;15.32;;;8.13;;
74415;SDS011;62850;42.428;25.618;2024-03-17T02:28:42;16.77;;;7.65;;
74415;SDS011;62850;42.428;25.618;2024-03-17T02:31:08;14.45;;;7.45;;
74415;SDS011;62850;42.428;25.618;2024-03-17T02:33:35;17.52;;;8.00;;
74415;SDS011;62850;42.428;25.618;2024-03-17T02:36:01;17.33;;;8.27;;
74415;SDS011;62850;42.428;25.618;2024-03-17T02:38:29;17.42;;;8.57;;
74415;SDS011;62850;42.428;25.618;2024-03-17T02:41:14;16.77;;;7.80;;
74415;SDS011;62850;42.428;25.618;2024-03-17T02:43:40;17.55;;;8.30;;
74415;SDS011;62850;42.428;25.618;2024-03-17T02:46:06;17.08;;;8.35;;
74415;SDS011;62850;42.428;25.618;2024-03-17T02:48:33;15.93;;;7.55;;
74415;SDS011;62850;42.428;25.618;2024-03-17T02:50:58;16.55;;;8.38;;
74415;SDS011;62850;42.428;25.618;2024-03-17T02:53:23;18.55;;;8.63;;
74415;SDS011;62850;42.428;25.618;2024-03-17T02:55:49;18.58;;;8.50;;
74415;SDS011;62850;42.428;25.618;2024-03-17T02:58:14;15.30;;;7.70;;
74415;SDS011;62850;42.428;25.618;2024-03-17T03:00:41;17.38;;;7.50;;
74415;SDS011;62850;42.428;25.618;2024-03-17T03:03:06;16.88;;;7.63;;
74415;SDS011;62850;42.428;25.618;2024-03-17T03:05:32;14.75;;;7.28;;
74415;SDS011;62850;42.428;25.618;2024-03-17T03:07:57;14.73;;;7.13;;
74415;SDS011;62850;42.428;25.618;2024-03-17T03:10:23;13.45;;;7.20;;
74415;SDS011;62850;42.428;25.618;2024-03-17T03:12:48;15.27;;;6.60;;
74415;SDS011;62850;42.428;25.618;2024-03-17T03:15:14;14.23;;;7.15;;
74415;SDS011;62850;42.428;25.618;2024-03-17T03:17:39;13.68;;;6.90;;
74415;SDS011;62850;42.428;25.618;2024-03-17T03:20:05;13.20;;;6.82;;
74415;SDS011;62850;42.428;25.618;2024-03-17T03:22:33;14.38;;;6.90;;
74415;SDS011;62850;42.428;25.618;2024-03-17T03:24:58;14.00;;;7.35;;
74415;SDS011;62850;42.428;25.618;2024-03-17T03:27:24;14.45;;;6.97;;
74415;SDS011;62850;42.428;25.618;2024-03-17T03:29:49;16.63;;;8.05;;
74415;SDS011;62850;42.428;25.618;2024-03-17T03:32:15;17.98;;;8.45;;
74415;SDS011;62850;42.428;25.618;2024-03-17T03:34:42;19.15;;;9.07;;
74415;SDS011;62850;42.428;25.618;2024-03-17T03:37:08;16.73;;;7.97;;
74415;SDS011;62850;42.428;25.618;2024-03-17T03:39:36;18.52;;;8.60;;
74415;SDS011;62850;42.428;25.618;2024-03-17T03:42:01;19.42;;;8.73;;
74415;SDS011;62850;42.428;25.618;2024-03-17T03:44:27;19.75;;;9.65;;
74415;SDS011;62850;42.428;25.618;2024-03-17T03:46:53;19.13;;;8.95;;
74415;SDS011;62850;42.428;25.618;2024-03-17T03:49:23;18.90;;;9.55;;
74415;SDS011;62850;42.428;25.618;2024-03-17T03:51:49;18.33;;;8.60;;
74415;SDS011;62850;42.428;25.618;2024-03-17T03:54:14;17.73;;;8.88;;
74415;SDS011;62850;42.428;25.618;2024-03-17T03:56:40;16.48;;;8.18;;
74415;SDS011;62850;42.428;25.618;2024-03-17T03:59:05;17.80;;;8.93;;
74415;SDS011;62850;42.428;25.618;2024-03-17T04:01:31;15.85;;;8.30;;
74415;SDS011;62850;42.428;25.618;2024-03-17T04:03:56;18.98;;;8.73;;
74415;SDS011;62850;42.428;25.618;2024-03-17T04:06:22;18.27;;;9.02;;
74415;SDS011;62850;42.428;25.618;2024-03-17T04:08:48;17.13;;;9.10;;
74415;SDS011;62850;42.428;25.618;2024-03-17T04:11:13;16.98;;;9.05;;
74415;SDS011;62850;42.428;25.618;2024-03-17T04:13:39;18.58;;;9.20;;
74415;SDS011;62850;42.428;25.618;2024-03-17T04:16:04;20.08;;;9.65;;
74415;SDS011;62850;42.428;25.618;2024-03-17T04:18:31;17.88;;;9.05;;
74415;SDS011;62850;42.428;25.618;2024-03-17T04:21:01;20.92;;;11.00;;
74415;SDS011;62850;42.428;25.618;2024-03-17T04:23:37;21.80;;;11.15;;
74415;SDS011;62850;42.428;25.618;2024-03-17T04:26:03;22.33;;;11.05;;
74415;SDS011;62850;42.428;25.618;2024-03-17T04:28:29;22.33;;;11.30;;
74415;SDS011;62850;42.428;25.618;2024-03-17T04:31:07;23.88;;;12.63;;
74415;SDS011;62850;42.428;25.618;2024-03-17T04:33:33;20.70;;;11.05;;
74415;SDS011;62850;42.428;25.618;2024-03-17T04:35:59;24.13;;;12.00;;
74415;SDS011;62850;42.428;25.618;2024-03-17T04:38:27;24.58;;;11.18;;
74415;SDS011;62850;42.428;25.618;2024-03-17T04:40:53;20.38;;;9.90;;
74415;SDS011;62850;42.428;25.618;2024-03-17T04:43:30;18.23;;;9.57;;
74415;SDS011;62850;42.428;25.618;2024-03-17T04:46:03;21.08;;;10.85;;
74415;SDS011;62850;42.428;25.618;2024-03-17T04:48:31;25.40;;;10.50;;
74415;SDS011;62850;42.428;25.618;2024-03-17T04:50:57;20.13;;;10.52;;
74415;SDS011;62850;42.428;25.618;2024-03-17T04:53:23;21.52;;;11.43;;
74415;SDS011;62850;42.428;25.618;2024-03-17T04:55:57;18.88;;;10.05;;
74415;SDS011;62850;42.428;25.618;2024-03-17T04:58:30;20.30;;;10.57;;
74415;SDS011;62850;42.428;25.618;2024-03-17T05:01:08;17.73;;;9.43;;
74415;SDS011;62850;42.428;25.618;2024-03-17T05:03:34;16.42;;;8.77;;
74415;SDS011;62850;42.428;25.618;2024-03-17T05:06:01;16.60;;;8.27;;
74415;SDS011;62850;42.428;25.618;2024-03-17T05:08:27;18.33;;;9.05;;
74415;SDS011;62850;42.428;25.618;2024-03-17T05:10:57;16.17;;;7.78;;
74415;SDS011;62850;42.428;25.618;2024-03-17T05:13:24;16.70;;;8.00;;
74415;SDS011;62850;42.428;25.618;2024-03-17T05:15:53;16.70;;;7.95;;
74415;SDS011;62850;42.428;25.618;2024-03-17T05:18:19;18.98;;;8.45;;
74415;SDS011;62850;42.428;25.618;2024-03-17T05:20:45;17.98;;;8.25;;
74415;SDS011;62850;42.428;25.618;2024-03-17T05:23:14;13.98;;;8.15;;
74415;SDS011;62850;42.428;25.618;2024-03-17T05:25:39;17.08;;;8.70;;
74415;SDS011;62850;42.428;25.618;2024-03-17T05:28:04;15.98;;;7.80;;
74415;SDS011;62850;42.428;25.618;2024-03-17T05:30:30;14.85;;;7.90;;
74415;SDS011;62850;42.428;25.618;2024-03-17T05:32:56;17.13;;;8.27;;
74415;SDS011;62850;42.428;25.618;2024-03-17T05:35:21;19.45;;;8.45;;
74415;SDS011;62850;42.428;25.618;2024-03-17T05:37:48;17.48;;;8.45;;
74415;SDS011;62850;42.428;25.618;2024-03-17T05:40:14;18.13;;;8.48;;
74415;SDS011;62850;42.428;25.618;2024-03-17T05:42:42;16.13;;;8.15;;
74415;SDS011;62850;42.428;25.618;2024-03-17T05:47:37;16.55;;;8.05;;
74415;SDS011;62850;42.428;25.618;2024-03-17T05:50:04;20.45;;;9.02;;
74415;SDS011;62850;42.428;25.618;2024-03-17T05:52:29;19.13;;;9.80;;
74415;SDS011;62850;42.428;25.618;2024-03-17T05:54:55;22.50;;;10.52;;
74415;SDS011;62850;42.428;25.618;2024-03-17T05:57:21;18.75;;;9.48;;
74415;SDS011;62850;42.428;25.618;2024-03-17T05:59:47;23.85;;;11.07;;
74415;SDS011;62850;42.428;25.618;2024-03-17T06:02:13;21.77;;;11.15;;
74415;SDS011;62850;42.428;25.618;2024-03-17T06:04:40;22.30;;;11.05;;
74415;SDS011;62850;42.428;25.618;2024-03-17T06:07:05;22.45;;;10.43;;
74415;SDS011;62850;42.428;25.618;2024-03-17T06:09:31;26.45;;;11.48;;
74415;SDS011;62850;42.428;25.618;2024-03-17T06:11:57;21.02;;;11.00;;
74415;SDS011;62850;42.428;25.618;2024-03-17T06:14:22;20.95;;;11.18;;
74415;SDS011;62850;42.428;25.618;2024-03-17T06:16:48;22.00;;;11.70;;
74415;SDS011;62850;42.428;25.618;2024-03-17T06:19:13;25.88;;;12.55;;
74415;SDS011;62850;42.428;25.618;2024-03-17T06:21:39;23.45;;;11.75;;
74415;SDS011;62850;42.428;25.618;2024-03-17T06:24:05;23.05;;;11.82;;
74415;SDS011;62850;42.428;25.618;2024-03-17T06:26:34;22.48;;;11.10;;
74415;SDS011;62850;42.428;25.618;2024-03-17T06:29:00;25.05;;;11.60;;
74415;SDS011;62850;42.428;25.618;2024-03-17T06:31:26;23.05;;;11.45;;
74415;SDS011;62850;42.428;25.618;2024-03-17T06:33:51;24.65;;;11.68;;
74415;SDS011;62850;42.428;25.618;2024-03-17T06:36:17;23.58;;;11.30;;
74415;SDS011;62850;42.428;25.618;2024-03-17T06:38:42;20.42;;;11.15;;
74415;SDS011;62850;42.428;25.618;2024-03-17T06:41:11;21.75;;;11.48;;
74415;SDS011;62850;42.428;25.618;2024-03-17T06:43:39;21.65;;;11.30;;
74415;SDS011;62850;42.428;25.618;2024-03-17T06:46:06;20.13;;;10.32;;
74415;SDS011;62850;42.428;25.618;2024-03-17T06:48:32;21.35;;;10.60;;
74415;SDS011;62850;42.428;25.618;2024-03-17T06:50:58;19.35;;;10.02;;
74415;SDS011;62850;42.428;25.618;2024-03-17T06:53:24;20.45;;;9.93;;
74415;SDS011;62850;42.428;25.618;2024-03-17T06:55:54;20.52;;;10.30;;
74415;SDS011;62850;42.428;25.618;2024-03-17T06:58:21;18.88;;;9.95;;
74415;SDS011;62850;42.428;25.618;2024-03-17T07:03:20;18.20;;;9.15;;
74415;SDS011;62850;42.428;25.618;2024-03-17T07:05:50;18.50;;;9.75;;
74415;SDS011;62850;42.428;25.618;2024-03-17T07:08:24;17.40;;;9.45;;
74415;SDS011;62850;42.428;25.618;2024-03-17T07:11:00;18.17;;;8.98;;
74415;SDS011;62850;42.428;25.618;2024-03-17T07:13:28;16.98;;;9.20;;
74415;SDS011;62850;42.428;25.618;2024-03-17T07:15:55;17.52;;;8.38;;
74415;SDS011;62850;42.428;25.618;2024-03-17T07:18:21;21.33;;;10.30;;
74415;SDS011;62850;42.428;25.618;2024-03-17T07:20:47;26.70;;;12.23;;
74415;SDS011;62850;42.428;25.618;2024-03-17T07:23:15;18.48;;;9.50;;
74415;SDS011;62850;42.428;25.618;2024-03-17T07:25:41;19.20;;;10.05;;
74415;SDS011;62850;42.428;25.618;2024-03-17T07:28:07;16.65;;;9.65;;
74415;SDS011;62850;42.428;25.618;2024-03-17T07:30:33;22.77;;;10.98;;
74415;SDS011;62850;42.428;25.618;2024-03-17T07:32:58;20.35;;;10.02;;
74415;SDS011;62850;42.428;25.618;2024-03-17T07:35:24;23.05;;;10.57;;
74415;SDS011;62850;42.428;25.618;2024-03-17T07:37:49;21.92;;;10.30;;
74415;SDS011;62850;42.428;25.618;2024-03-17T07:40:15;17.90;;;9.20;;
74415;SDS011;62850;42.428;25.618;2024-03-17T07:42:41;19.95;;;9.43;;
74415;SDS011;62850;42.428;25.618;2024-03-17T07:45:07;18.45;;;8.77;;
74415;SDS011;62850;42.428;25.618;2024-03-17T07:47:33;18.55;;;10.00;;
74415;SDS011;62850;42.428;25.618;2024-03-17T07:50:04;20.80;;;10.13;;
74415;SDS011;62850;42.428;25.618;2024-03-17T07:52:30;28.58;;;14.52;;
74415;SDS011;62850;42.428;25.618;2024-03-17T07:54:56;22.15;;;12.00;;
74415;SDS011;62850;42.428;25.618;2024-03-17T07:57:22;22.02;;;10.07;;
74415;SDS011;62850;42.428;25.618;2024-03-17T07:59:50;20.90;;;10.63;;
74415;SDS011;62850;42.428;25.618;2024-03-17T08:02:19;19.83;;;9.95;;
74415;SDS011;62850;42.428;25.618;2024-03-17T08:04:44;20.95;;;10.70;;
74415;SDS011;62850;42.428;25.618;2024-03-17T08:07:10;21.98;;;10.57;;
74415;SDS011;62850;42.428;25.618;2024-03-17T08:09:35;19.77;;;10.43;;
74415;SDS011;62850;42.428;25.618;2024-03-17T08:12:01;21.95;;;10.50;;
74415;SDS011;62850;42.428;25.618;2024-03-17T08:14:29;19.17;;;10.07;;
74415;SDS011;62850;42.428;25.618;2024-03-17T08:16:55;20.67;;;10.35;;
74415;SDS011;62850;42.428;25.618;2024-03-17T08:19:20;20.20;;;10.80;;
74415;SDS011;62850;42.428;25.618;2024-03-17T08:21:46;17.40;;;9.48;;
74415;SDS011;62850;42.428;25.618;2024-03-17T08:24:11;22.35;;;10.52;;
74415;SDS011;62850;42.428;25.618;2024-03-17T08:26:38;21.23;;;10.68;;
74415;SDS011;62850;42.428;25.618;2024-03-17T08:29:05;17.85;;;9.95;;
74415;SDS011;62850;42.428;25.618;2024-03-17T08:31:31;19.02;;;9.80;;
74415;SDS011;62850;42.428;25.618;2024-03-17T08:33:57;19.92;;;9.82;;
74415;SDS011;62850;42.428;25.618;2024-03-17T08:36:22;17.48;;;9.77;;
74415;SDS011;62850;42.428;25.618;2024-03-17T08:38:48;19.52;;;9.98;;
74415;SDS011;62850;42.428;25.618;2024-03-17T08:41:13;17.77;;;10.15;;
74415;SDS011;62850;42.428;25.618;2024-03-17T08:43:39;19.88;;;9.88;;
74415;SDS011;62850;42.428;25.618;2024-03-17T08:46:07;21.50;;;10.25;;
74415;SDS011;62850;42.428;25.618;2024-03-17T08:48:34;20.40;;;10.07;;
74415;SDS011;62850;42.428;25.618;2024-03-17T08:51:01;17.67;;;9.27;;
74415;SDS011;62850;42.428;25.618;2024-03-17T08:53:28;19.45;;;10.38;;
74415;SDS011;62850;42.428;25.618;2024-03-17T08:55:54;19.33;;;9.98;;
74415;SDS011;62850;42.428;25.618;2024-03-17T08:58:20;19.05;;;9.68;;
74415;SDS011;62850;42.428;25.618;2024-03-17T09:00:46;19.30;;;10.30;;
74415;SDS011;62850;42.428;25.618;2024-03-17T09:03:12;19.02;;;10.15;;
74415;SDS011;62850;42.428;25.618;2024-03-17T09:05:39;18.83;;;10.15;;
74415;SDS011;62850;42.428;25.618;2024-03-17T09:08:05;20.27;;;9.32;;
74415;SDS011;62850;42.428;25.618;2024-03-17T09:10:38;21.05;;;9.65;;
74415;SDS011;62850;42.428;25.618;2024-03-17T09:13:07;18.52;;;10.05;;
74415;SDS011;62850;42.428;25.618;2024-03-17T09:15:38;18.67;;;10.38;;
74415;SDS011;62850;42.428;25.618;2024-03-17T09:18:03;16.85;;;9.43;;
74415;SDS011;62850;42.428;25.618;2024-03-17T09:20:29;16.00;;;8.90;;
74415;SDS011;62850;42.428;25.618;2024-03-17T09:22:54;15.85;;;8.95;;
74415;SDS011;62850;42.428;25.618;2024-03-17T09:25:20;17.17;;;9.18;;
74415;SDS011;62850;42.428;25.618;2024-03-17T09:27:46;18.15;;;9.52;;
74415;SDS011;62850;42.428;25.618;2024-03-17T09:30:11;19.10;;;8.27;;
74415;SDS011;62850;42.428;25.618;2024-03-17T09:32:37;15.68;;;8.95;;
74415;SDS011;62850;42.428;25.618;2024-03-17T09:35:03;13.40;;;8.25;;
74415;SDS011;62850;42.428;25.618;2024-03-17T09:37:30;14.15;;;7.70;;
74415;SDS011;62850;42.428;25.618;2024-03-17T09:39:56;13.18;;;7.47;;
74415;SDS011;62850;42.428;25.618;2024-03-17T09:42:25;12.77;;;7.65;;
74415;SDS011;62850;42.428;25.618;2024-03-17T09:44:54;15.25;;;8.23;;
74415;SDS011;62850;42.428;25.618;2024-03-17T09:47:21;16.23;;;8.45;;
74415;SDS011;62850;42.428;25.618;2024-03-17T09:49:48;14.02;;;7.90;;
74415;SDS011;62850;42.428;25.618;2024-03-17T09:52:24;14.85;;;7.70;;
74415;SDS011;62850;42.428;25.618;2024-03-17T09:54:54;15.07;;;8.73;;
74415;SDS011;62850;42.428;25.618;2024-03-17T09:57:24;12.60;;;7.30;;
74415;SDS011;62850;42.428;25.618;2024-03-17T09:59:51;12.32;;;7.05;;
74415;SDS011;62850;42.428;25.618;2024-03-17T10:02:18;14.40;;;7.60;;
74415;SDS011;62850;42.428;25.618;2024-03-17T10:04:43;14.20;;;7.97;;
74415;SDS011;62850;42.428;25.618;2024-03-17T10:07:09;14.55;;;7.90;;
74415;SDS011;62850;42.428;25.618;2024-03-17T10:09:34;16.85;;;8.05;;
74415;SDS011;62850;42.428;25.618;2024-03-17T10:12:01;13.70;;;8.05;;
74415;SDS011;62850;42.428;25.618;2024-03-17T10:14:27;13.43;;;8.10;;
74415;SDS011;62850;42.428;25.618;2024-03-17T10:16:52;16.98;;;8.57;;
74415;SDS011;62850;42.428;25.618;2024-03-17T10:21:47;19.15;;;9.32;;
74415;SDS011;62850;42.428;25.618;2024-03-17T10:24:14;13.23;;;7.90;;
74415;SDS011;62850;42.428;25.618;2024-03-17T10:29:22;14.75;;;8.32;;
74415;SDS011;62850;42.428;25.618;2024-03-17T10:31:53;16.00;;;8.25;;
74415;SDS011;62850;42.428;25.618;2024-03-17T10:34:21;13.40;;;7.55;;
74415;SDS011;62850;42.428;25.618;2024-03-17T10:36:51;14.52;;;8.20;;
74415;SDS011;62850;42.428;25.618;2024-03-17T10:39:30;14.88;;;7.97;;
74415;SDS011;62850;42.428;25.618;2024-03-17T10:41:56;14.35;;;8.13;;
74415;SDS011;62850;42.428;25.618;2024-03-17T10:44:24;13.45;;;8.52;;
74415;SDS011;62850;42.428;25.618;2024-03-17T10:46:51;13.05;;;7.53;;
74415;SDS011;62850;42.428;25.618;2024-03-17T10:49:19;15.02;;;7.97;;
74415;SDS011;62850;42.428;25.618;2024-03-17T10:51:46;17.65;;;8.10;;
74415;SDS011;62850;42.428;25.618;2024-03-17T10:54:16;13.35;;;7.85;;
74415;SDS011;62850;42.428;25.618;2024-03-17T10:56:51;13.90;;;7.47;;
74415;SDS011;62850;42.428;25.618;2024-03-17T10:59:16;13.85;;;8.18;;
74415;SDS011;62850;42.428;25.618;2024-03-17T11:01:47;11.13;;;7.28;;
74415;SDS011;62850;42.428;25.618;2024-03-17T11:04:14;13.95;;;7.53;;
74415;SDS011;62850;42.428;25.618;2024-03-17T11:06:39;12.63;;;7.38;;
74415;SDS011;62850;42.428;25.618;2024-03-17T11:09:06;12.27;;;6.72;;
74415;SDS011;62850;42.428;25.618;2024-03-17T11:11:38;17.80;;;6.78;;
74415;SDS011;62850;42.428;25.618;2024-03-17T11:14:17;11.23;;;7.07;;
74415;SDS011;62850;42.428;25.618;2024-03-17T11:16:44;10.43;;;6.80;;
74415;SDS011;62850;42.428;25.618;2024-03-17T11:19:14;10.85;;;6.35;;
74415;SDS011;62850;42.428;25.618;2024-03-17T11:21:41;10.32;;;6.18;;
74415;SDS011;62850;42.428;25.618;2024-03-17T11:24:07;11.35;;;5.90;;
74415;SDS011;62850;42.428;25.618;2024-03-17T11:26:44;13.60;;;6.78;;
74415;SDS011;62850;42.428;25.618;2024-03-17T11:29:25;10.80;;;6.22;;
74415;SDS011;62850;42.428;25.618;2024-03-17T11:31:52;12.10;;;6.13;;
74415;SDS011;62850;42.428;25.618;2024-03-17T11:36:55;12.43;;;6.38;;
74415;SDS011;62850;42.428;25.618;2024-03-17T11:42:18;12.15;;;7.05;;
74415;SDS011;62850;42.428;25.618;2024-03-17T11:44:58;10.40;;;5.65;;
74415;SDS011;62850;42.428;25.618;2024-03-17T11:47:38;10.02;;;6.00;;
74415;SDS011;62850;42.428;25.618;2024-03-17T11:50:06;11.35;;;5.97;;
74415;SDS011;62850;42.428;25.618;2024-03-17T11:52:34;9.40;;;5.65;;
74415;SDS011;62850;42.428;25.618;2024-03-17T11:55:00;8.93;;;5.90;;
74415;SDS011;62850;42.428;25.618;2024-03-17T11:57:26;10.90;;;6.30;;
74415;SDS011;62850;42.428;25.618;2024-03-17T11:59:53;8.88;;;5.68;;
74415;SDS011;62850;42.428;25.618;2024-03-17T12:02:23;9.15;;;5.70;;
74415;SDS011;62850;42.428;25.618;2024-03-17T12:04:57;8.68;;;5.68;;
74415;SDS011;62850;42.428;25.618;2024-03-17T12:07:23;11.68;;;5.68;;
74415;SDS011;62850;42.428;25.618;2024-03-17T12:09:49;12.40;;;6.45;;
74415;SDS011;62850;42.428;25.618;2024-03-17T12:14:48;10.07;;;5.68;;
74415;SDS011;62850;42.428;25.618;2024-03-17T12:17:15;10.82;;;6.65;;
74415;SDS011;62850;42.428;25.618;2024-03-17T12:19:45;9.85;;;6.00;;
74415;SDS011;62850;42.428;25.618;2024-03-17T12:22:18;9.73;;;6.25;;
74415;SDS011;62850;42.428;25.618;2024-03-17T12:24:49;9.75;;;5.90;;
74415;SDS011;62850;42.428;25.618;2024-03-17T12:27:19;11.68;;;6.80;;
74415;SDS011;62850;42.428;25.618;2024-03-17T12:29:49;10.18;;;6.47;;
74415;SDS011;62850;42.428;25.618;2024-03-17T12:34:46;11.70;;;6.53;;
74415;SDS011;62850;42.428;25.618;2024-03-17T12:37:20;9.88;;;6.60;;
74415;SDS011;62850;42.428;25.618;2024-03-17T12:39:51;13.30;;;7.25;;
74415;SDS011;62850;42.428;25.618;2024-03-17T12:42:23;12.32;;;7.30;;
74415;SDS011;62850;42.428;25.618;2024-03-17T12:47:22;12.93;;;6.78;;
74415;SDS011;62850;42.428;25.618;2024-03-17T12:49:49;11.63;;;6.72;;
74415;SDS011;62850;42.428;25.618;2024-03-17T12:52:19;10.15;;;7.15;;
74415;SDS011;62850;42.428;25.618;2024-03-17T12:54:58;12.98;;;6.97;;
74415;SDS011;62850;42.428;25.618;2024-03-17T12:57:47;11.80;;;7.38;;
74415;SDS011;62850;42.428;25.618;2024-03-17T13:00:32;11.90;;;7.25;;
74415;SDS011;62850;42.428;25.618;2024-03-17T13:02:58;11.60;;;7.22;;
74415;SDS011;62850;42.428;25.618;2024-03-17T13:05:24;13.52;;;7.32;;
74415;SDS011;62850;42.428;25.618;2024-03-17T13:07:50;11.30;;;7.25;;
74415;SDS011;62850;42.428;25.618;2024-03-17T13:10:19;13.73;;;7.60;;
74415;SDS011;62850;42.428;25.618;2024-03-17T13:12:45;14.18;;;7.60;;
74415;SDS011;62850;42.428;25.618;2024-03-17T13:15:13;14.45;;;7.68;;
74415;SDS011;62850;42.428;25.618;2024-03-17T13:17:42;13.48;;;8.35;;
74415;SDS011;62850;42.428;25.618;2024-03-17T13:20:12;13.10;;;8.50;;
74415;SDS011;62850;42.428;25.618;2024-03-17T13:22:40;13.00;;;7.88;;
74415;SDS011;62850;42.428;25.618;2024-03-17T13:25:12;13.57;;;7.55;;
74415;SDS011;62850;42.428;25.618;2024-03-17T13:28:01;14.93;;;7.35;;
74415;SDS011;62850;42.428;25.618;2024-03-17T13:30:29;10.98;;;6.78;;
74415;SDS011;62850;42.428;25.618;2024-03-17T13:32:55;11.85;;;7.55;;
74415;SDS011;62850;42.428;25.618;2024-03-17T13:35:24;11.23;;;7.53;;
74415;SDS011;62850;42.428;25.618;2024-03-17T13:37:51;16.30;;;8.35;;
74415;SDS011;62850;42.428;25.618;2024-03-17T13:40:19;12.70;;;6.80;;
74415;SDS011;62850;42.428;25.618;2024-03-17T13:42:45;11.50;;;7.45;;
74415;SDS011;62850;42.428;25.618;2024-03-17T13:45:12;10.15;;;6.40;;
74415;SDS011;62850;42.428;25.618;2024-03-17T13:47:39;16.33;;;8.63;;
74415;SDS011;62850;42.428;25.618;2024-03-17T13:50:05;12.48;;;8.15;;
74415;SDS011;62850;42.428;25.618;2024-03-17T13:52:36;12.85;;;7.47;;
74415;SDS011;62850;42.428;25.618;2024-03-17T13:55:02;10.95;;;6.95;;
74415;SDS011;62850;42.428;25.618;2024-03-17T13:57:31;11.45;;;7.10;;
74415;SDS011;62850;42.428;25.618;2024-03-17T13:59:59;10.57;;;7.28;;
74415;SDS011;62850;42.428;25.618;2024-03-17T14:02:25;11.85;;;7.03;;
74415;SDS011;62850;42.428;25.618;2024-03-17T14:04:50;13.70;;;7.25;;
74415;SDS011;62850;42.428;25.618;2024-03-17T14:07:16;10.30;;;6.68;;
74415;SDS011;62850;42.428;25.618;2024-03-17T14:09:41;10.38;;;6.35;;
74415;SDS011;62850;42.428;25.618;2024-03-17T14:12:07;10.35;;;6.93;;
74415;SDS011;62850;42.428;25.618;2024-03-17T14:14:33;11.20;;;6.30;;
74415;SDS011;62850;42.428;25.618;2024-03-17T14:16:59;10.57;;;6.75;;
74415;SDS011;62850;42.428;25.618;2024-03-17T14:19:25;10.85;;;6.50;;
74415;SDS011;62850;42.428;25.618;2024-03-17T14:21:50;10.80;;;7.32;;
74415;SDS011;62850;42.428;25.618;2024-03-17T14:24:16;11.40;;;7.15;;
74415;SDS011;62850;42.428;25.618;2024-03-17T14:26:41;10.90;;;6.88;;
74415;SDS011;62850;42.428;25.618;2024-03-17T14:29:07;11.60;;;7.35;;
74415;SDS011;62850;42.428;25.618;2024-03-17T14:31:33;10.02;;;6.75;;
74415;SDS011;62850;42.428;25.618;2024-03-17T14:34:08;9.88;;;6.80;;
74415;SDS011;62850;42.428;25.618;2024-03-17T14:36:34;10.88;;;6.75;;
74415;SDS011;62850;42.428;25.618;2024-03-17T14:39:00;11.10;;;7.10;;
74415;SDS011;62850;42.428;25.618;2024-03-17T14:41:29;14.13;;;8.45;;
74415;SDS011;62850;42.428;25.618;2024-03-17T14:43:56;42.53;;;19.80;;